KOZR

Cairns AAF (Fort Rucker) Airport

Fort Rucker/Ozark, Alabama, USA
METAR KOZR 210356Z AUTO 00000KT 10SM OVC120 10/06 A3026 RMK AO2 SLP250 T01030055
Observed Flight Rules
Jan-21 @ 03:56 UTC (39 minutes ago) Visual Flight Rules
Wind Visibility Clouds
Calm 10 miles
  • Overcast at 12,000' AGL
Temperatures Readings
Current 10°C / 50°F
Dewpoint 6°C / 43°F
Humidity 76%
Altimeter 30.26" Hg
Pressure 1025 hPa
Elevation 93
METAR KOZR 210356Z AUTO 00000KT 10SM OVC120 10/06 A3026 RMK AO2 SLP250 T01030055
Observed Flight Rules
Jan-21 @ 03:56 UTC
(39 minutes ago)
VFR
Wind Visibility
Calm 10 miles
Clouds
  • Overcast at 12,000' AGL
Temperature Dewpoint
10°C / 50°F 6°C / 43°F
Humidity Altimeter Pressure
76% 30.26" Hg 1025 hPa